sensor_id;sensor_type;location;lat;lon;timestamp;temperature;humidity
42841;DHT22;28491;46.898;7.660;2023-05-29T00:00:05;14.60;1.00
42841;DHT22;28491;46.898;7.660;2023-05-29T00:02:33;14.60;1.00
42841;DHT22;28491;46.898;7.660;2023-05-29T00:04:58;14.70;1.00
42841;DHT22;28491;46.898;7.660;2023-05-29T00:07:24;14.70;1.00
42841;DHT22;28491;46.898;7.660;2023-05-29T00:09:49;14.70;1.00
42841;DHT22;28491;46.898;7.660;2023-05-29T00:12:15;14.60;1.00
42841;DHT22;28491;46.898;7.660;2023-05-29T00:14:40;14.40;1.00
42841;DHT22;28491;46.898;7.660;2023-05-29T00:17:06;14.20;1.00
42841;DHT22;28491;46.898;7.660;2023-05-29T00:19:31;14.10;1.00
42841;DHT22;28491;46.898;7.660;2023-05-29T00:21:57;14.10;1.00
42841;DHT22;28491;46.898;7.660;2023-05-29T00:24:23;14.20;1.00
42841;DHT22;28491;46.898;7.660;2023-05-29T00:26:48;14.20;1.00
42841;DHT22;28491;46.898;7.660;2023-05-29T00:29:14;14.20;1.00
42841;DHT22;28491;46.898;7.660;2023-05-29T00:31:40;14.20;1.00
42841;DHT22;28491;46.898;7.660;2023-05-29T00:34:05;14.20;1.00
42841;DHT22;28491;46.898;7.660;2023-05-29T00:36:31;14.10;1.00
42841;DHT22;28491;46.898;7.660;2023-05-29T00:38:57;14.10;1.00
42841;DHT22;28491;46.898;7.660;2023-05-29T00:41:22;14.00;1.00
42841;DHT22;28491;46.898;7.660;2023-05-29T00:43:48;14.00;1.00
42841;DHT22;28491;46.898;7.660;2023-05-29T00:46:14;13.90;1.00
42841;DHT22;28491;46.898;7.660;2023-05-29T00:48:44;13.90;1.00
42841;DHT22;28491;46.898;7.660;2023-05-29T00:51:10;13.80;1.00
42841;DHT22;28491;46.898;7.660;2023-05-29T00:53:38;13.90;1.00
42841;DHT22;28491;46.898;7.660;2023-05-29T00:56:04;13.90;1.00
42841;DHT22;28491;46.898;7.660;2023-05-29T00:58:30;13.90;1.00
42841;DHT22;28491;46.898;7.660;2023-05-29T01:00:56;13.70;1.00
42841;DHT22;28491;46.898;7.660;2023-05-29T01:03:22;13.70;1.00
42841;DHT22;28491;46.898;7.660;2023-05-29T01:05:48;13.60;1.00
42841;DHT22;28491;46.898;7.660;2023-05-29T01:08:14;13.50;1.00
42841;DHT22;28491;46.898;7.660;2023-05-29T01:10:40;13.40;1.00
42841;DHT22;28491;46.898;7.660;2023-05-29T01:13:22;13.50;1.00
42841;DHT22;28491;46.898;7.660;2023-05-29T01:16:06;13.60;1.00
42841;DHT22;28491;46.898;7.660;2023-05-29T01:18:47;13.70;1.00
42841;DHT22;28491;46.898;7.660;2023-05-29T01:26:52;13.40;1.00
42841;DHT22;28491;46.898;7.660;2023-05-29T01:29:22;13.30;1.00
42841;DHT22;28491;46.898;7.660;2023-05-29T01:31:48;13.20;1.00
42841;DHT22;28491;46.898;7.660;2023-05-29T01:34:15;13.10;1.00
42841;DHT22;28491;46.898;7.660;2023-05-29T01:36:40;13.10;1.00
42841;DHT22;28491;46.898;7.660;2023-05-29T01:39:07;13.00;1.00
42841;DHT22;28491;46.898;7.660;2023-05-29T01:41:33;12.90;1.00
42841;DHT22;28491;46.898;7.660;2023-05-29T01:44:03;12.90;1.00
42841;DHT22;28491;46.898;7.660;2023-05-29T01:46:30;12.80;1.00
42841;DHT22;28491;46.898;7.660;2023-05-29T01:48:55;12.80;1.00
42841;DHT22;28491;46.898;7.660;2023-05-29T01:51:21;12.80;1.00
42841;DHT22;28491;46.898;7.660;2023-05-29T01:53:47;12.80;1.00
42841;DHT22;28491;46.898;7.660;2023-05-29T01:56:12;12.80;1.00
42841;DHT22;28491;46.898;7.660;2023-05-29T01:58:39;12.70;1.00
42841;DHT22;28491;46.898;7.660;2023-05-29T02:01:06;12.60;1.00
42841;DHT22;28491;46.898;7.660;2023-05-29T02:03:32;12.60;1.00
42841;DHT22;28491;46.898;7.660;2023-05-29T02:05:58;12.50;1.00
42841;DHT22;28491;46.898;7.660;2023-05-29T02:08:24;12.40;1.00
42841;DHT22;28491;46.898;7.660;2023-05-29T02:10:50;12.40;1.00
42841;DHT22;28491;46.898;7.660;2023-05-29T02:13:16;12.40;1.00
42841;DHT22;28491;46.898;7.660;2023-05-29T02:15:42;12.40;1.00
42841;DHT22;28491;46.898;7.660;2023-05-29T02:18:10;12.40;1.00
42841;DHT22;28491;46.898;7.660;2023-05-29T02:20:37;12.50;1.00
42841;DHT22;28491;46.898;7.660;2023-05-29T02:23:03;12.60;1.00
42841;DHT22;28491;46.898;7.660;2023-05-29T02:25:29;12.50;1.00
42841;DHT22;28491;46.898;7.660;2023-05-29T02:27:54;12.40;1.00
42841;DHT22;28491;46.898;7.660;2023-05-29T02:30:20;12.40;1.00
42841;DHT22;28491;46.898;7.660;2023-05-29T02:32:45;12.30;1.00
42841;DHT22;28491;46.898;7.660;2023-05-29T02:35:12;12.40;1.00
42841;DHT22;28491;46.898;7.660;2023-05-29T02:37:40;12.40;1.00
42841;DHT22;28491;46.898;7.660;2023-05-29T02:40:06;12.40;1.00
42841;DHT22;28491;46.898;7.660;2023-05-29T02:42:33;12.30;1.00
42841;DHT22;28491;46.898;7.660;2023-05-29T02:44:58;12.30;1.00
42841;DHT22;28491;46.898;7.660;2023-05-29T02:47:24;12.30;1.00
42841;DHT22;28491;46.898;7.660;2023-05-29T02:49:49;12.30;1.00
42841;DHT22;28491;46.898;7.660;2023-05-29T02:52:15;12.40;1.00
42841;DHT22;28491;46.898;7.660;2023-05-29T02:54:40;12.30;1.00
42841;DHT22;28491;46.898;7.660;2023-05-29T02:57:06;12.10;1.00
42841;DHT22;28491;46.898;7.660;2023-05-29T02:59:31;12.10;1.00
42841;DHT22;28491;46.898;7.660;2023-05-29T03:01:57;12.10;1.00
42841;DHT22;28491;46.898;7.660;2023-05-29T03:04:23;12.10;1.00
42841;DHT22;28491;46.898;7.660;2023-05-29T03:06:48;12.10;1.00
42841;DHT22;28491;46.898;7.660;2023-05-29T03:09:14;12.10;1.00
42841;DHT22;28491;46.898;7.660;2023-05-29T03:11:41;12.10;1.00
42841;DHT22;28491;46.898;7.660;2023-05-29T03:14:07;12.00;1.00
42841;DHT22;28491;46.898;7.660;2023-05-29T03:16:34;12.00;1.00
42841;DHT22;28491;46.898;7.660;2023-05-29T03:19:01;12.00;1.00
42841;DHT22;28491;46.898;7.660;2023-05-29T03:21:27;12.00;1.00
42841;DHT22;28491;46.898;7.660;2023-05-29T03:23:52;12.00;1.00
42841;DHT22;28491;46.898;7.660;2023-05-29T03:26:18;12.00;1.00
42841;DHT22;28491;46.898;7.660;2023-05-29T03:28:43;12.00;1.00
42841;DHT22;28491;46.898;7.660;2023-05-29T03:31:09;11.90;1.00
42841;DHT22;28491;46.898;7.660;2023-05-29T03:33:35;11.90;1.00
42841;DHT22;28491;46.898;7.660;2023-05-29T03:36:01;12.00;1.00
42841;DHT22;28491;46.898;7.660;2023-05-29T03:38:27;12.00;1.00
42841;DHT22;28491;46.898;7.660;2023-05-29T03:40:53;12.00;1.00
42841;DHT22;28491;46.898;7.660;2023-05-29T03:43:19;12.10;1.00
42841;DHT22;28491;46.898;7.660;2023-05-29T03:45:44;12.10;1.00
42841;DHT22;28491;46.898;7.660;2023-05-29T03:48:10;12.00;1.00
42841;DHT22;28491;46.898;7.660;2023-05-29T03:50:35;11.80;1.00
42841;DHT22;28491;46.898;7.660;2023-05-29T03:53:01;11.80;1.00
42841;DHT22;28491;46.898;7.660;2023-05-29T03:55:26;11.70;1.00
42841;DHT22;28491;46.898;7.660;2023-05-29T03:57:53;11.70;1.00
42841;DHT22;28491;46.898;7.660;2023-05-29T04:00:19;11.70;1.00
42841;DHT22;28491;46.898;7.660;2023-05-29T04:02:45;11.60;1.00
42841;DHT22;28491;46.898;7.660;2023-05-29T04:05:11;11.50;1.10
42841;DHT22;28491;46.898;7.660;2023-05-29T04:07:38;11.60;1.40
42841;DHT22;28491;46.898;7.660;2023-05-29T04:10:05;11.60;1.00
42841;DHT22;28491;46.898;7.660;2023-05-29T04:12:32;11.70;1.50
42841;DHT22;28491;46.898;7.660;2023-05-29T04:14:57;11.70;1.00
42841;DHT22;28491;46.898;7.660;2023-05-29T04:17:23;11.70;1.00
42841;DHT22;28491;46.898;7.660;2023-05-29T04:19:49;11.80;1.00
42841;DHT22;28491;46.898;7.660;2023-05-29T04:22:14;11.80;1.00
42841;DHT22;28491;46.898;7.660;2023-05-29T04:24:40;11.80;1.00
42841;DHT22;28491;46.898;7.660;2023-05-29T04:27:08;11.80;1.00
42841;DHT22;28491;46.898;7.660;2023-05-29T04:29:34;11.80;1.00
42841;DHT22;28491;46.898;7.660;2023-05-29T04:32:00;11.90;1.00
42841;DHT22;28491;46.898;7.660;2023-05-29T04:34:29;11.90;1.00
42841;DHT22;28491;46.898;7.660;2023-05-29T04:36:56;11.90;1.00
42841;DHT22;28491;46.898;7.660;2023-05-29T04:39:23;11.90;1.00
42841;DHT22;28491;46.898;7.660;2023-05-29T04:41:49;12.10;1.00
42841;DHT22;28491;46.898;7.660;2023-05-29T04:44:15;12.10;1.00
42841;DHT22;28491;46.898;7.660;2023-05-29T04:46:40;12.20;1.00
42841;DHT22;28491;46.898;7.660;2023-05-29T04:49:09;12.20;1.00
42841;DHT22;28491;46.898;7.660;2023-05-29T04:51:35;12.20;1.00
42841;DHT22;28491;46.898;7.660;2023-05-29T04:54:01;12.20;1.00
42841;DHT22;28491;46.898;7.660;2023-05-29T04:56:28;12.30;1.00
42841;DHT22;28491;46.898;7.660;2023-05-29T04:58:53;12.50;1.00
42841;DHT22;28491;46.898;7.660;2023-05-29T05:01:19;12.50;1.00
42841;DHT22;28491;46.898;7.660;2023-05-29T05:03:45;12.50;1.00
42841;DHT22;28491;46.898;7.660;2023-05-29T05:06:11;12.50;1.00
42841;DHT22;28491;46.898;7.660;2023-05-29T05:08:38;12.60;1.00
42841;DHT22;28491;46.898;7.660;2023-05-29T05:11:03;12.80;1.00
42841;DHT22;28491;46.898;7.660;2023-05-29T05:13:29;12.90;1.00
42841;DHT22;28491;46.898;7.660;2023-05-29T05:15:55;13.00;1.00
42841;DHT22;28491;46.898;7.660;2023-05-29T05:18:21;13.10;1.00
42841;DHT22;28491;46.898;7.660;2023-05-29T05:20:46;13.20;1.00
42841;DHT22;28491;46.898;7.660;2023-05-29T05:23:12;13.40;1.00
42841;DHT22;28491;46.898;7.660;2023-05-29T05:25:38;13.60;1.00
42841;DHT22;28491;46.898;7.660;2023-05-29T05:28:04;13.80;1.00
42841;DHT22;28491;46.898;7.660;2023-05-29T05:30:30;13.90;1.00
42841;DHT22;28491;46.898;7.660;2023-05-29T05:32:56;14.10;1.00
42841;DHT22;28491;46.898;7.660;2023-05-29T05:35:22;14.30;1.00
42841;DHT22;28491;46.898;7.660;2023-05-29T05:37:47;14.30;1.00
42841;DHT22;28491;46.898;7.660;2023-05-29T05:40:13;14.50;1.00
42841;DHT22;28491;46.898;7.660;2023-05-29T05:42:38;14.80;1.00
42841;DHT22;28491;46.898;7.660;2023-05-29T05:45:04;15.10;1.00
42841;DHT22;28491;46.898;7.660;2023-05-29T05:47:32;15.50;1.00
42841;DHT22;28491;46.898;7.660;2023-05-29T05:49:57;15.70;1.00
42841;DHT22;28491;46.898;7.660;2023-05-29T05:52:24;16.10;1.00
42841;DHT22;28491;46.898;7.660;2023-05-29T05:54:49;16.50;1.00
42841;DHT22;28491;46.898;7.660;2023-05-29T05:57:15;16.90;1.00
42841;DHT22;28491;46.898;7.660;2023-05-29T05:59:41;17.30;1.00
42841;DHT22;28491;46.898;7.660;2023-05-29T06:02:06;17.70;1.00
42841;DHT22;28491;46.898;7.660;2023-05-29T06:04:32;18.20;1.00
42841;DHT22;28491;46.898;7.660;2023-05-29T06:06:57;18.60;1.00
42841;DHT22;28491;46.898;7.660;2023-05-29T06:09:23;19.00;1.00
42841;DHT22;28491;46.898;7.660;2023-05-29T06:11:50;19.30;1.00
42841;DHT22;28491;46.898;7.660;2023-05-29T06:14:15;19.80;1.00
42841;DHT22;28491;46.898;7.660;2023-05-29T06:16:42;20.20;1.00
42841;DHT22;28491;46.898;7.660;2023-05-29T06:19:08;20.60;1.00
42841;DHT22;28491;46.898;7.660;2023-05-29T06:21:34;20.80;1.00
42841;DHT22;28491;46.898;7.660;2023-05-29T06:24:00;21.00;1.00
42841;DHT22;28491;46.898;7.660;2023-05-29T06:26:25;21.20;1.00
42841;DHT22;28491;46.898;7.660;2023-05-29T06:28:52;21.50;1.00
42841;DHT22;28491;46.898;7.660;2023-05-29T06:31:17;21.70;1.00
42841;DHT22;28491;46.898;7.660;2023-05-29T06:33:43;21.80;1.00
42841;DHT22;28491;46.898;7.660;2023-05-29T06:36:09;21.90;1.00
42841;DHT22;28491;46.898;7.660;2023-05-29T06:38:36;22.20;1.00
42841;DHT22;28491;46.898;7.660;2023-05-29T06:41:01;22.30;1.00
42841;DHT22;28491;46.898;7.660;2023-05-29T06:43:27;22.30;1.00
42841;DHT22;28491;46.898;7.660;2023-05-29T06:45:53;22.50;1.00
42841;DHT22;28491;46.898;7.660;2023-05-29T06:48:19;22.50;1.00
42841;DHT22;28491;46.898;7.660;2023-05-29T06:50:44;22.80;1.00
42841;DHT22;28491;46.898;7.660;2023-05-29T06:53:10;23.10;1.00
42841;DHT22;28491;46.898;7.660;2023-05-29T06:55:35;23.30;1.00
42841;DHT22;28491;46.898;7.660;2023-05-29T06:58:01;23.30;1.00
42841;DHT22;28491;46.898;7.660;2023-05-29T07:00:26;23.40;1.00
42841;DHT22;28491;46.898;7.660;2023-05-29T07:02:53;24.00;1.00
42841;DHT22;28491;46.898;7.660;2023-05-29T07:05:18;23.90;1.00
42841;DHT22;28491;46.898;7.660;2023-05-29T07:07:44;24.30;1.00
42841;DHT22;28491;46.898;7.660;2023-05-29T07:10:10;24.70;1.00
42841;DHT22;28491;46.898;7.660;2023-05-29T07:12:35;24.50;1.00
42841;DHT22;28491;46.898;7.660;2023-05-29T07:15:01;24.50;1.00
42841;DHT22;28491;46.898;7.660;2023-05-29T07:17:26;24.60;1.00
42841;DHT22;28491;46.898;7.660;2023-05-29T07:19:52;24.90;1.00
42841;DHT22;28491;46.898;7.660;2023-05-29T07:22:19;25.10;1.00
42841;DHT22;28491;46.898;7.660;2023-05-29T07:24:45;25.30;1.00
42841;DHT22;28491;46.898;7.660;2023-05-29T07:27:11;25.50;1.00
42841;DHT22;28491;46.898;7.660;2023-05-29T07:29:36;25.40;1.00
42841;DHT22;28491;46.898;7.660;2023-05-29T07:32:02;25.70;1.00
42841;DHT22;28491;46.898;7.660;2023-05-29T07:34:27;26.00;1.00
42841;DHT22;28491;46.898;7.660;2023-05-29T07:37:03;26.90;1.00
42841;DHT22;28491;46.898;7.660;2023-05-29T07:39:30;27.00;1.00
42841;DHT22;28491;46.898;7.660;2023-05-29T07:41:56;27.00;1.00
42841;DHT22;28491;46.898;7.660;2023-05-29T07:44:22;26.50;1.00
42841;DHT22;28491;46.898;7.660;2023-05-29T07:46:47;27.20;1.00
42841;DHT22;28491;46.898;7.660;2023-05-29T07:49:14;27.20;1.00
42841;DHT22;28491;46.898;7.660;2023-05-29T07:51:40;26.90;1.00
42841;DHT22;28491;46.898;7.660;2023-05-29T07:54:05;27.30;1.00
42841;DHT22;28491;46.898;7.660;2023-05-29T07:56:31;27.60;1.00
42841;DHT22;28491;46.898;7.660;2023-05-29T07:58:59;26.80;1.00
42841;DHT22;28491;46.898;7.660;2023-05-29T08:01:24;25.90;1.00
42841;DHT22;28491;46.898;7.660;2023-05-29T08:03:51;25.30;1.00
42841;DHT22;28491;46.898;7.660;2023-05-29T08:06:17;24.60;1.00
42841;DHT22;28491;46.898;7.660;2023-05-29T08:08:42;24.10;1.00
42841;DHT22;28491;46.898;7.660;2023-05-29T08:11:08;23.60;1.00
42841;DHT22;28491;46.898;7.660;2023-05-29T08:13:34;23.10;1.00
42841;DHT22;28491;46.898;7.660;2023-05-29T08:16:00;22.80;1.00
42841;DHT22;28491;46.898;7.660;2023-05-29T08:18:26;22.90;1.00
42841;DHT22;28491;46.898;7.660;2023-05-29T08:20:52;23.00;1.00
42841;DHT22;28491;46.898;7.660;2023-05-29T08:23:18;23.00;1.00
42841;DHT22;28491;46.898;7.660;2023-05-29T08:25:44;22.60;1.00
42841;DHT22;28491;46.898;7.660;2023-05-29T08:28:09;22.50;1.00
42841;DHT22;28491;46.898;7.660;2023-05-29T08:30:35;22.60;1.00
42841;DHT22;28491;46.898;7.660;2023-05-29T08:33:00;22.70;1.00
42841;DHT22;28491;46.898;7.660;2023-05-29T08:35:26;22.90;1.00
42841;DHT22;28491;46.898;7.660;2023-05-29T08:37:52;23.20;1.00
42841;DHT22;28491;46.898;7.660;2023-05-29T08:40:18;23.20;1.00
42841;DHT22;28491;46.898;7.660;2023-05-29T08:42:47;23.40;1.00
42841;DHT22;28491;46.898;7.660;2023-05-29T08:45:14;23.60;1.00
42841;DHT22;28491;46.898;7.660;2023-05-29T08:47:40;23.20;1.00
42841;DHT22;28491;46.898;7.660;2023-05-29T08:50:07;22.80;1.00
42841;DHT22;28491;46.898;7.660;2023-05-29T08:52:34;22.70;1.00
42841;DHT22;28491;46.898;7.660;2023-05-29T08:55:01;22.90;1.00
42841;DHT22;28491;46.898;7.660;2023-05-29T08:57:29;23.10;1.00
42841;DHT22;28491;46.898;7.660;2023-05-29T08:59:56;23.00;1.00
42841;DHT22;28491;46.898;7.660;2023-05-29T09:02:22;23.10;1.00
42841;DHT22;28491;46.898;7.660;2023-05-29T09:04:47;23.20;1.00
42841;DHT22;28491;46.898;7.660;2023-05-29T09:07:15;23.50;1.00
42841;DHT22;28491;46.898;7.660;2023-05-29T09:09:40;23.40;1.00
42841;DHT22;28491;46.898;7.660;2023-05-29T09:12:06;23.60;1.00
42841;DHT22;28491;46.898;7.660;2023-05-29T09:14:33;23.50;1.00
42841;DHT22;28491;46.898;7.660;2023-05-29T09:17:00;23.60;1.00
42841;DHT22;28491;46.898;7.660;2023-05-29T09:19:25;23.60;1.00
42841;DHT22;28491;46.898;7.660;2023-05-29T09:21:51;23.70;1.00
42841;DHT22;28491;46.898;7.660;2023-05-29T09:24:16;23.50;1.00
42841;DHT22;28491;46.898;7.660;2023-05-29T09:26:51;23.40;1.00
42841;DHT22;28491;46.898;7.660;2023-05-29T09:29:16;23.30;1.00
42841;DHT22;28491;46.898;7.660;2023-05-29T09:31:50;23.20;1.00
42841;DHT22;28491;46.898;7.660;2023-05-29T09:34:16;23.60;1.00
42841;DHT22;28491;46.898;7.660;2023-05-29T09:36:41;23.60;1.00
42841;DHT22;28491;46.898;7.660;2023-05-29T09:39:07;23.60;1.00
42841;DHT22;28491;46.898;7.660;2023-05-29T09:41:43;23.60;1.00
42841;DHT22;28491;46.898;7.660;2023-05-29T09:44:12;23.50;1.00
42841;DHT22;28491;46.898;7.660;2023-05-29T09:46:39;23.70;1.00
42841;DHT22;28491;46.898;7.660;2023-05-29T09:49:12;23.50;1.00
42841;DHT22;28491;46.898;7.660;2023-05-29T09:51:38;23.60;1.00
42841;DHT22;28491;46.898;7.660;2023-05-29T09:54:15;23.50;1.00
42841;DHT22;28491;46.898;7.660;2023-05-29T09:56:45;23.70;1.00
42841;DHT22;28491;46.898;7.660;2023-05-29T09:59:12;23.70;1.00
42841;DHT22;28491;46.898;7.660;2023-05-29T10:01:43;23.80;1.00
42841;DHT22;28491;46.898;7.660;2023-05-29T10:04:11;23.80;1.00
42841;DHT22;28491;46.898;7.660;2023-05-29T10:06:41;23.90;1.00
42841;DHT22;28491;46.898;7.660;2023-05-29T10:09:09;24.10;1.00
42841;DHT22;28491;46.898;7.660;2023-05-29T10:11:37;24.30;1.00
42841;DHT22;28491;46.898;7.660;2023-05-29T10:14:03;24.20;1.00
42841;DHT22;28491;46.898;7.660;2023-05-29T10:16:32;24.20;1.00
42841;DHT22;28491;46.898;7.660;2023-05-29T10:19:01;24.30;1.00
42841;DHT22;28491;46.898;7.660;2023-05-29T10:21:33;24.30;1.00
42841;DHT22;28491;46.898;7.660;2023-05-29T10:24:05;24.50;1.00
42841;DHT22;28491;46.898;7.660;2023-05-29T10:26:36;24.50;1.00
42841;DHT22;28491;46.898;7.660;2023-05-29T10:35:01;24.60;1.00
42841;DHT22;28491;46.898;7.660;2023-05-29T10:37:40;24.70;1.00
42841;DHT22;28491;46.898;7.660;2023-05-29T10:40:10;24.80;1.00
42841;DHT22;28491;46.898;7.660;2023-05-29T10:45:04;24.70;1.00
42841;DHT22;28491;46.898;7.660;2023-05-29T10:47:30;24.90;1.00
42841;DHT22;28491;46.898;7.660;2023-05-29T10:50:00;24.90;1.00
42841;DHT22;28491;46.898;7.660;2023-05-29T10:52:26;24.80;1.00
42841;DHT22;28491;46.898;7.660;2023-05-29T10:54:54;24.60;1.00
42841;DHT22;28491;46.898;7.660;2023-05-29T10:57:24;24.70;1.00
42841;DHT22;28491;46.898;7.660;2023-05-29T11:00:03;25.10;1.00
42841;DHT22;28491;46.898;7.660;2023-05-29T11:02:31;25.00;1.00
42841;DHT22;28491;46.898;7.660;2023-05-29T11:05:27;24.90;1.00
42841;DHT22;28491;46.898;7.660;2023-05-29T11:07:55;25.00;1.00
42841;DHT22;28491;46.898;7.660;2023-05-29T11:10:42;25.00;1.00
42841;DHT22;28491;46.898;7.660;2023-05-29T11:13:09;25.00;1.00
42841;DHT22;28491;46.898;7.660;2023-05-29T11:15:36;25.00;1.00
42841;DHT22;28491;46.898;7.660;2023-05-29T11:18:06;24.90;1.00
42841;DHT22;28491;46.898;7.660;2023-05-29T11:20:50;24.70;1.00
42841;DHT22;28491;46.898;7.660;2023-05-29T11:23:17;24.70;1.00
42841;DHT22;28491;46.898;7.660;2023-05-29T11:25:44;25.00;1.00
42841;DHT22;28491;46.898;7.660;2023-05-29T11:28:11;24.90;1.00
42841;DHT22;28491;46.898;7.660;2023-05-29T11:30:44;24.90;1.00
42841;DHT22;28491;46.898;7.660;2023-05-29T11:33:19;24.70;1.00
42841;DHT22;28491;46.898;7.660;2023-05-29T11:35:46;25.00;1.00
42841;DHT22;28491;46.898;7.660;2023-05-29T11:38:12;25.00;1.00
42841;DHT22;28491;46.898;7.660;2023-05-29T11:40:37;25.00;1.00
42841;DHT22;28491;46.898;7.660;2023-05-29T11:43:03;24.80;1.00
42841;DHT22;28491;46.898;7.660;2023-05-29T11:45:32;24.70;1.00
42841;DHT22;28491;46.898;7.660;2023-05-29T11:48:01;24.90;1.00
42841;DHT22;28491;46.898;7.660;2023-05-29T11:50:29;25.10;1.00
42841;DHT22;28491;46.898;7.660;2023-05-29T11:52:56;24.90;1.00
42841;DHT22;28491;46.898;7.660;2023-05-29T11:55:23;25.10;1.00
42841;DHT22;28491;46.898;7.660;2023-05-29T11:57:50;25.00;1.00
42841;DHT22;28491;46.898;7.660;2023-05-29T12:00:17;24.80;1.00
42841;DHT22;28491;46.898;7.660;2023-05-29T12:02:44;24.60;1.00
42841;DHT22;28491;46.898;7.660;2023-05-29T12:05:13;24.50;1.00
42841;DHT22;28491;46.898;7.660;2023-05-29T12:07:47;24.60;1.00
42841;DHT22;28491;46.898;7.660;2023-05-29T12:10:15;24.60;1.00
42841;DHT22;28491;46.898;7.660;2023-05-29T12:12:41;24.70;1.00
42841;DHT22;28491;46.898;7.660;2023-05-29T12:15:08;24.50;1.00
42841;DHT22;28491;46.898;7.660;2023-05-29T12:17:35;24.50;1.00
42841;DHT22;28491;46.898;7.660;2023-05-29T12:20:03;24.80;1.00
42841;DHT22;28491;46.898;7.660;2023-05-29T12:22:39;24.70;1.00
42841;DHT22;28491;46.898;7.660;2023-05-29T12:25:13;24.70;1.00
42841;DHT22;28491;46.898;7.660;2023-05-29T12:27:41;24.40;1.00
42841;DHT22;28491;46.898;7.660;2023-05-29T12:30:09;24.50;1.00
42841;DHT22;28491;46.898;7.660;2023-05-29T12:32:39;24.50;1.00
42841;DHT22;28491;46.898;7.660;2023-05-29T12:35:23;24.60;1.00
42841;DHT22;28491;46.898;7.660;2023-05-29T12:40:21;24.50;1.00
42841;DHT22;28491;46.898;7.660;2023-05-29T12:42:48;24.40;1.00
42841;DHT22;28491;46.898;7.660;2023-05-29T12:45:15;24.40;1.00
42841;DHT22;28491;46.898;7.660;2023-05-29T12:47:56;24.20;1.00
42841;DHT22;28491;46.898;7.660;2023-05-29T12:50:30;24.50;1.00
42841;DHT22;28491;46.898;7.660;2023-05-29T12:53:02;24.70;1.00
42841;DHT22;28491;46.898;7.660;2023-05-29T12:55:30;24.60;1.00
42841;DHT22;28491;46.898;7.660;2023-05-29T12:57:59;24.70;1.00
42841;DHT22;28491;46.898;7.660;2023-05-29T13:00:25;24.60;1.00
42841;DHT22;28491;46.898;7.660;2023-05-29T13:02:50;24.70;1.00
42841;DHT22;28491;46.898;7.660;2023-05-29T13:05:17;24.60;1.00
42841;DHT22;28491;46.898;7.660;2023-05-29T13:07:44;24.60;1.00
42841;DHT22;28491;46.898;7.660;2023-05-29T13:10:10;24.70;1.00
42841;DHT22;28491;46.898;7.660;2023-05-29T13:12:36;24.60;1.00
42841;DHT22;28491;46.898;7.660;2023-05-29T13:15:02;24.50;1.00
42841;DHT22;28491;46.898;7.660;2023-05-29T13:17:27;24.50;1.00
42841;DHT22;28491;46.898;7.660;2023-05-29T13:19:53;24.70;1.00
42841;DHT22;28491;46.898;7.660;2023-05-29T13:22:18;24.90;1.00
42841;DHT22;28491;46.898;7.660;2023-05-29T13:24:45;24.90;1.00
42841;DHT22;28491;46.898;7.660;2023-05-29T13:27:11;24.80;1.00
42841;DHT22;28491;46.898;7.660;2023-05-29T13:29:39;24.70;1.00
42841;DHT22;28491;46.898;7.660;2023-05-29T13:32:06;24.90;1.00
42841;DHT22;28491;46.898;7.660;2023-05-29T13:34:31;24.90;1.00
42841;DHT22;28491;46.898;7.660;2023-05-29T13:36:57;24.90;1.00
42841;DHT22;28491;46.898;7.660;2023-05-29T13:39:23;25.00;1.00
42841;DHT22;28491;46.898;7.660;2023-05-29T13:41:50;25.00;1.00
42841;DHT22;28491;46.898;7.660;2023-05-29T13:44:16;24.90;1.00
42841;DHT22;28491;46.898;7.660;2023-05-29T13:46:41;24.90;1.00
42841;DHT22;28491;46.898;7.660;2023-05-29T13:49:07;24.90;1.00
42841;DHT22;28491;46.898;7.660;2023-05-29T13:51:33;24.90;1.00
42841;DHT22;28491;46.898;7.660;2023-05-29T13:53:59;24.90;1.00
42841;DHT22;28491;46.898;7.660;2023-05-29T13:56:24;24.80;1.00
42841;DHT22;28491;46.898;7.660;2023-05-29T13:58:52;24.80;1.00
42841;DHT22;28491;46.898;7.660;2023-05-29T14:01:17;24.70;1.00
42841;DHT22;28491;46.898;7.660;2023-05-29T14:03:45;24.50;1.00
42841;DHT22;28491;46.898;7.660;2023-05-29T14:06:11;24.50;1.00
42841;DHT22;28491;46.898;7.660;2023-05-29T14:08:36;24.60;1.00
42841;DHT22;28491;46.898;7.660;2023-05-29T14:11:02;24.40;1.00
42841;DHT22;28491;46.898;7.660;2023-05-29T14:13:28;24.40;1.00
42841;DHT22;28491;46.898;7.660;2023-05-29T14:15:54;24.50;1.00
42841;DHT22;28491;46.898;7.660;2023-05-29T14:18:22;24.30;1.00
42841;DHT22;28491;46.898;7.660;2023-05-29T14:20:48;24.20;1.00
42841;DHT22;28491;46.898;7.660;2023-05-29T14:23:14;24.10;1.00
42841;DHT22;28491;46.898;7.660;2023-05-29T14:25:41;24.10;1.00
42841;DHT22;28491;46.898;7.660;2023-05-29T14:28:07;24.20;1.00
42841;DHT22;28491;46.898;7.660;2023-05-29T14:30:33;24.20;1.00
42841;DHT22;28491;46.898;7.660;2023-05-29T14:32:58;24.20;1.00
42841;DHT22;28491;46.898;7.660;2023-05-29T14:35:25;24.10;1.00
42841;DHT22;28491;46.898;7.660;2023-05-29T14:37:50;24.00;1.00
42841;DHT22;28491;46.898;7.660;2023-05-29T14:40:16;24.00;1.00
42841;DHT22;28491;46.898;7.660;2023-05-29T14:42:41;24.00;1.00
42841;DHT22;28491;46.898;7.660;2023-05-29T14:45:07;24.00;1.00
42841;DHT22;28491;46.898;7.660;2023-05-29T14:47:33;24.00;1.00
42841;DHT22;28491;46.898;7.660;2023-05-29T14:49:58;24.00;1.00
42841;DHT22;28491;46.898;7.660;2023-05-29T14:52:24;24.10;1.00
42841;DHT22;28491;46.898;7.660;2023-05-29T14:54:49;24.00;1.00
42841;DHT22;28491;46.898;7.660;2023-05-29T14:57:15;24.00;1.00
42841;DHT22;28491;46.898;7.660;2023-05-29T14:59:40;23.90;1.00
42841;DHT22;28491;46.898;7.660;2023-05-29T15:02:06;23.90;1.00
42841;DHT22;28491;46.898;7.660;2023-05-29T15:04:32;23.90;1.00
42841;DHT22;28491;46.898;7.660;2023-05-29T15:06:58;24.00;1.00
42841;DHT22;28491;46.898;7.660;2023-05-29T15:09:23;24.00;1.00
42841;DHT22;28491;46.898;7.660;2023-05-29T15:11:49;24.00;1.00
42841;DHT22;28491;46.898;7.660;2023-05-29T15:14:16;23.90;1.00
42841;DHT22;28491;46.898;7.660;2023-05-29T15:16:42;23.90;1.00
42841;DHT22;28491;46.898;7.660;2023-05-29T15:19:08;23.90;1.00
42841;DHT22;28491;46.898;7.660;2023-05-29T15:21:33;23.90;1.00
42841;DHT22;28491;46.898;7.660;2023-05-29T15:23:59;23.70;1.00
42841;DHT22;28491;46.898;7.660;2023-05-29T15:26:24;23.80;1.00
42841;DHT22;28491;46.898;7.660;2023-05-29T15:28:50;23.80;1.00
42841;DHT22;28491;46.898;7.660;2023-05-29T15:31:16;23.80;1.00
42841;DHT22;28491;46.898;7.660;2023-05-29T15:33:43;23.70;1.00
42841;DHT22;28491;46.898;7.660;2023-05-29T15:36:08;23.60;1.00
42841;DHT22;28491;46.898;7.660;2023-05-29T15:38:34;23.40;1.00
42841;DHT22;28491;46.898;7.660;2023-05-29T15:40:59;23.40;1.00
42841;DHT22;28491;46.898;7.660;2023-05-29T15:43:25;23.50;1.00
42841;DHT22;28491;46.898;7.660;2023-05-29T15:45:51;23.40;1.00
42841;DHT22;28491;46.898;7.660;2023-05-29T15:48:16;23.40;1.00
42841;DHT22;28491;46.898;7.660;2023-05-29T15:50:42;23.30;1.00
42841;DHT22;28491;46.898;7.660;2023-05-29T15:53:08;23.30;1.00
42841;DHT22;28491;46.898;7.660;2023-05-29T15:55:33;23.20;1.00
42841;DHT22;28491;46.898;7.660;2023-05-29T15:57:59;23.20;1.00